Lone, Kentucky
Current Conditions -  °F | °C
As of 8:53 PM on Sunday 25 Jan 2015 (Local Time) from KJKL Reporting Station
Light Rain Light Rain  
Wind Chill: 40°   Ceiling: 5500
Heat Index: 43°   Visibility: 9mi
Dew Point: 36°   Wind: 5mph
Humidity: 76%   Direction: 80°E
Pressure: 29.67"   Gusts: NA
Location:  37.53°N, 83.6°W
Report Text: KJKL 260153Z AUTO 08004KT 9SM -RA FEW044 OVC055 06/02 A2967 RMK AO2 RAE28B45 SLP051 P0001 T00610022
Loading
Personal Weather Stations






























Interactive Weather Map New forecast layout! Learn more

10-Day Weather Forecast

Advertisements
Track Severe Weather on mobile